Three Forks, MT (59752)

11:57 PM MDT on July 01, 2015 (GMT -0600)
Three Forks High School | | Change Station
CLOSE
Current Station
Personal Weather Station
Location: Three Forks, MT
Elevation: 4075 ft
Nearby Weather Stations

Elev 4075 ft 45.90 °N, 111.55 °W | Updated 28 seconds ago

Clear
Clear
74.5 °F
Feels Like 77 °F
N
1.0
Wind Variable Wind from West

Today
High -- | Low -- °F
--% Chance of Precip.
Yesterday
High -- | Low -- °F
Precip. -- in
5:39 AM 9:20 PM
Full, 100% visible
Pressure 29.98 in
Visibility 8.0 miles
Clouds Clear
Heat Index 77 °F
Dew Point 53 °F
Humidity 47%
Rainfall 0.00 in
Snow Depth Not available.
UV 0 out of 12
Pollen 5.00 out of 12
Air Quality Not available.
Flu Activity Not available.
METAR KBZN 020456Z VRB04KT 8SM CLR 22/11 A3012 RMK AO2 SLP151 T02220111

More Conditions Fewer Conditions

Pressure 29.98 in
Visibility 8.0 miles
Clouds Clear
Heat Index 77 °F
Dew Point 53 °F
Humidity 47%
Rainfall 0.00 in
Snow Depth Not available.
UV 0 out of 12
Pollen 5.00 out of 12
Air Quality Not available.
Flu Activity Not available.
METAR KBZN 020456Z VRB04KT 8SM CLR 22/11 A3012 RMK AO2 SLP151 T02220111

More Conditions Fewer Conditions

10-Day Weather Forecast

×

Almanac

Astronomy

Jul. 01, 2015 Rise Set
Actual Time
Civil Twilight
Nautical Twilight
Astronomical Twilight
Moon
Length of Visible Light
Length of Day
Tomorrow will be .
, % of the Moon is Illuminated

Today's Extremes

State Highs State Lows

Community

WunderPhotos

Upload Photos

1,834,423 photos uploaded!

WunderBlogs® & News

Nearby

Air Quality

  Air Quality AQ Index Pollutant
Not available.

Snow Depth

Station Depth Elevation

Earthquake Activity

City Distance Mag. Time & Date
Minimum magnitude displayed is 2.5.

Coastal Water Temperatures

Place Temperature

Stations

Nearby Weather Stations

Station Location Temp. Windchill Dew Point Humidity Wind Precip. Elev Updated Type